EW1033 Weather Reports


Display with metric or nautical units.
time (UTC)temp
F
wind
direction
speed
MPH
gust
MPH
rain 1hr
in
rain 24hr
in
rain mn
in
humidity
%
barometer
mb
20180921001813 85 269 4.0 10.0 0.00 0.24 0.01 51 1011.6
20180921000312 85 249 5.0 11.0 0.00 0.24 0.01 50 1011.5
20180920234811 85 265 1.0 12.0 0.00 0.33 0.01 50 1011.5
20180920233313 86 267 4.0 11.0 0.00 0.33 0.01 50 1011.4
20180920231807 86 256 9.0 13.0 0.00 0.33 0.01 51 1011.5
20180920230309 86 303 6.0 12.0 0.00 0.33 0.01 50 1011.5
20180920224805 86 285 2.0 12.0 0.00 0.40 0.01 52 1011.6
20180920223315 85 267 0.0 10.0 0.00 0.40 0.01 51 1011.5
20180920221805 87 281 3.0 11.0 0.00 0.40 0.01 52 1011.6
20180920220304 86 281 4.0 10.0 0.00 0.40 0.01 51 1011.7
20180920214803 86 288 3.0 9.0 0.00 0.40 0.01 52 1011.8
20180920213307 85 284 1.0 11.0 0.00 0.40 0.01 53 1012.0
20180920211805 85 232 1.0 12.0 0.00 0.40 0.01 52 1012.0
20180920210302 85 234 5.0 13.0 0.00 0.40 0.01 54 1012.1
20180920204800 86 253 5.0 10.0 0.00 0.40 0.01 53 1012.3
20180920203258 85 244 4.0 11.0 0.00 0.40 0.01 55 1012.4
20180920201756 84 250 1.0 9.0 0.00 0.40 0.01 58 1012.5
20180920200255 84 292 4.0 11.0 0.00 0.40 0.01 57 1012.6
20180920194754 84 264 1.0 9.0 0.00 0.48 0.01 60 1012.8
20180920193258 82 313 1.0 12.0 0.00 0.48 0.01 60 1013.1
20180920191752 81 165 0.0 7.0 0.00 0.48 0.01 60 1013.1
20180920190249 80 255 2.0 8.0 0.00 0.48 0.01 64 1013.3
20180920184752 81 218 2.0 7.0 0.00 0.48 0.01 60 1013.2
20180920183251 81 236 3.0 9.0 0.00 0.48 0.01 63 1013.4
20180920181747 79 222 0.0 6.0 0.00 0.48 0.01 66 1013.5
20180920180242 79 303 1.0 5.0 0.00 0.48 0.01 68 1013.5
20180920174741 78 253 0.0 5.0 0.00 0.48 0.01 70 1013.6
20180920173241 77 265 0.0 3.0 0.00 0.48 0.01 72 1013.7
20180920171749 75 270 0.0 0.0 0.00 0.48 0.01 77 1013.7
20180920170235 74 270 0.0 6.0 0.00 0.48 0.01 79 1013.8
20180920164734 76 295 0.0 5.0 0.00 0.48 0.01 78 1013.7
20180920163230 75 323 0.0 5.0 0.00 0.48 0.01 79 1013.5
20180920161732 74 355 0.0 0.0 0.00 0.48 0.01 80 1013.5
20180920160223 72 355 0.0 0.0 0.00 0.48 0.01 86 1013.5
20180920154725 71 355 0.0 0.0 0.00 0.49 0.01 87 1013.4
20180920153221 71 355 0.0 0.0 0.00 0.49 0.01 89 1013.3
20180920151722 71 355 0.0 0.0 0.00 0.49 0.01 88 1013.1
20180920150214 70 346 0.0 0.0 0.00 0.49 0.01 93 1013.0
20180920144710 69 320 0.0 0.0 0.00 0.49 0.01 95 1012.9
20180920143206 69 320 0.0 0.0 0.00 0.49 0.01 97 1012.8
20180920141732 68 320 0.0 0.0 0.00 0.49 0.01 98 1012.7
20180920140159 68 320 0.0 0.0 0.00 0.49 0.01 98 1012.5
20180920134655 66 320 0.0 0.0 0.00 0.49 0.01 98 1012.3
20180920133156 66 281 0.0 0.0 0.00 0.49 0.01 98 1012.1
20180920131653 66 277 0.0 0.0 0.00 0.49 0.01 98 1011.9
20180920130151 67 287 0.0 0.0 0.00 0.49 0.01 98 1011.8
20180920124739 67 287 0.0 0.0 0.00 0.49 0.01 97 1011.7
20180920123146 67 287 0.0 0.0 0.00 0.49 0.01 97 1011.4
20180920121647 67 287 0.0 0.0 0.00 0.49 0.01 97 1011.3
20180920120142 67 287 0.0 0.0 0.00 0.49 0.01 97 1011.1
20180920114905 67 287 0.0 0.0 0.00 0.49 0.01 97 1010.7
20180920113143 67 287 0.0 0.0 0.01 0.49 0.01 97 1010.7
20180920111709 67 287 0.0 1.0 0.01 0.49 0.01 97 1010.6
20180920110136 67 287 0.0 0.0 0.01 0.49 0.01 97 1010.4
20180920104644 67 287 0.0 0.0 0.01 0.49 0.01 97 1010.4
20180920103133 67 287 0.0 0.0 0.00 0.48 0.00 97 1010.4
20180920101701 67 287 0.0 0.0 0.00 0.48 0.00 97 1010.2
20180920100145 67 287 0.0 0.0 0.00 0.48 0.00 97 1010.2
20180920094629 67 287 0.0 0.0 0.00 0.48 0.00 97 1010.2
20180920093130 68 287 0.0 0.0 0.00 0.48 0.00 97 1010.2
20180920091629 68 287 0.0 0.0 0.00 0.48 0.00 97 1010.3
20180920090159 68 287 0.0 0.0 0.00 0.48 0.00 97 1010.1
20180920084632 68 287 0.0 0.0 0.00 0.48 0.00 97 1010.1
20180920083233 68 287 0.0 0.0 0.00 0.48 0.00 97 1010.1
20180920081635 68 287 0.0 0.0 0.00 0.48 0.00 97 1010.0
20180920080138 68 287 0.0 0.0 0.00 0.48 0.00 97 1010.0
20180920074627 68 287 0.0 0.0 0.00 0.48 0.00 97 1009.7
20180920073120 68 287 0.0 0.0 0.00 0.48 0.00 97 1009.7
20180920071619 68 287 0.0 0.0 0.00 0.48 0.00 96 1009.8
20180920070142 68 287 0.0 0.0 0.00 0.48 0.00 96 1009.9
20180920064632 68 287 0.0 0.0 0.00 0.48 0.48 96 1009.9
20180920063217 68 287 0.0 0.0 0.00 0.48 0.48 96 1009.9
20180920061619 68 287 0.0 0.0 0.00 0.48 0.48 96 1009.9
20180920060207 68 287 0.0 0.0 0.00 0.48 0.48 96 1009.7
20180920054709 68 286 0.0 0.0 0.00 0.48 0.48 96 1009.7
20180920053150 68 286 0.0 4.0 0.00 0.48 0.48 96 1009.8
20180920051614 68 287 0.0 2.0 0.01 0.48 0.48 96 1009.9
20180920050138 68 216 0.0 0.0 0.01 0.48 0.48 95 1009.8
20180920044612 68 198 0.0 0.0 0.01 0.48 0.48 95 1009.8
20180920043145 68 198 0.0 0.0 0.01 0.48 0.48 95 1009.9
20180920041621 69 192 0.0 0.0 0.01 0.47 0.47 95 1010.1
20180920040121 69 192 0.0 0.0 0.02 0.47 0.47 96 1010.1
20180920034609 69 203 0.0 2.0 0.03 0.47 0.47 96 1010.3
20180920033137 69 284 0.0 0.0 0.04 0.47 0.47 96 1010.2
20180920031636 69 284 0.0 0.0 0.05 0.46 0.46 96 1010.3
20180920030140 69 284 0.0 0.0 0.06 0.45 0.45 96 1010.2
20180920024711 69 284 0.0 0.0 0.06 0.44 0.44 96 1010.1
20180920023124 69 284 0.0 0.0 0.06 0.42 0.42 96 1010.0
20180920021638 69 284 0.0 0.0 0.07 0.41 0.41 96 1009.9
20180920020119 69 284 0.0 0.0 0.07 0.39 0.39 95 1009.8
20180920014710 69 284 0.0 0.0 0.08 0.38 0.38 95 1009.8
20180920013132 69 284 0.0 0.0 0.07 0.36 0.36 95 1009.7
20180920011610 70 284 0.0 0.0 0.07 0.34 0.34 95 1009.5
20180920010112 69 284 0.0 0.0 0.07 0.32 0.32 95 1009.3
20180920004623 69 284 0.0 0.0 0.07 0.30 0.30 95 1009.1
20180920003211 69 284 0.0 0.0 0.09 0.28 0.28 95 1008.9
20180920001859 69 284 0.0 0.0 0.09 0.27 0.27 95 1008.6